Time;durP1;ratioP1;P1;durP2;ratioP2;P2;SDS_P1;SDS_P2;PMS_P1;PMS_P2;Temp;Humidity;BMP_temperature;BMP_pressure;BME280_temperature;BME280_humidity;BME280_pressure;Samples;Min_cycle;Max_cycle;Signal;HPM_P1;HPM_P2
2021/04/11 00:02:04;;;;;;;16.37;8.68;;;11.40;55.00;;;;;;4344056;32;20094;-40
2021/04/11 00:04:30;;;;;;;12.93;5.97;;;11.30;55.80;;;;;;4358207;32;20071;-40
2021/04/11 00:06:56;;;;;;;17.60;8.82;;;11.20;56.20;;;;;;4357467;32;20084;-39
2021/04/11 00:09:23;;;;;;;16.50;8.23;;;11.20;56.70;;;;;;4357392;32;20474;-39
2021/04/11 00:11:49;;;;;;;13.93;7.95;;;11.10;56.50;;;;;;4356184;32;20525;-39
2021/04/11 00:14:16;;;;;;;14.05;5.55;;;11.10;56.50;;;;;;4358070;32;20517;-38
2021/04/11 00:16:42;;;;;;;16.95;8.63;;;11.00;56.60;;;;;;4358573;32;20097;-39
2021/04/11 00:19:09;;;;;;;15.80;9.40;;;10.90;56.70;;;;;;4360411;32;20616;-40
2021/04/11 00:21:35;;;;;;;22.13;9.27;;;10.90;57.00;;;;;;4358690;32;20466;-39
2021/04/11 00:24:02;;;;;;;18.37;8.48;;;10.90;57.10;;;;;;4360148;32;20156;-39
2021/04/11 00:26:29;;;;;;;16.33;7.75;;;10.90;57.10;;;;;;4360460;32;20081;-40
2021/04/11 00:28:55;;;;;;;13.45;7.22;;;11.00;57.10;;;;;;4358748;32;20074;-38
2021/04/11 00:31:21;;;;;;;13.30;5.80;;;11.00;57.20;;;;;;4360422;32;20118;-39
2021/04/11 00:33:48;;;;;;;10.32;5.93;;;11.00;57.10;;;;;;4360328;32;20263;-40
2021/04/11 00:36:17;;;;;;;15.40;7.90;;;11.00;57.10;;;;;;4359814;32;20082;-40
2021/04/11 00:38:44;;;;;;;18.10;8.07;;;11.00;57.10;;;;;;4358373;32;20078;-39
2021/04/11 00:41:19;;;;;;;15.35;8.00;;;11.00;57.20;;;;;;4359831;32;20070;-39
2021/04/11 00:43:45;;;;;;;;;;;11.10;57.30;;;;;;4360368;32;20078;-40
2021/04/11 00:46:46;;;;;;;12.73;5.85;;;11.10;57.10;;;;;;4345861;32;20455;-40
2021/04/11 00:49:33;;;;;;;14.70;7.43;;;11.20;57.20;;;;;;4359969;32;20185;-39
2021/04/11 00:52:00;;;;;;;13.60;6.40;;;11.20;57.10;;;;;;4358371;32;20077;-40
2021/04/11 00:54:26;;;;;;;9.32;5.57;;;11.20;57.20;;;;;;4346226;32;20181;-39
2021/04/11 00:56:53;;;;;;;14.70;7.43;;;11.20;57.30;;;;;;4358283;32;20070;-38
2021/04/11 00:59:19;;;;;;;16.67;8.02;;;11.20;57.80;;;;;;4358720;32;20081;-40
2021/04/11 01:01:46;;;;;;;16.52;6.75;;;11.30;57.10;;;;;;4345833;32;20063;-40
2021/04/11 01:04:14;;;;;;;12.63;6.82;;;11.30;57.00;;;;;;4358421;32;20166;-39
2021/04/11 01:06:53;;;;;;;15.32;7.43;;;11.40;57.00;;;;;;4359842;32;20058;-40
2021/04/11 01:09:51;;;;;;;15.27;7.05;;;11.30;57.00;;;;;;4346223;32;20081;-41
2021/04/11 01:12:19;;;;;;;16.33;8.75;;;11.30;57.00;;;;;;4347152;32;20094;-39
2021/04/11 01:14:46;;;;;;;18.60;9.73;;;11.30;57.20;;;;;;4358459;32;20151;-40
2021/04/11 01:17:20;;;;;;;16.27;9.63;;;11.30;57.20;;;;;;4333568;32;20176;-40
2021/04/11 01:19:49;;;;;;;14.35;7.90;;;11.30;57.20;;;;;;4359469;32;20514;-40
2021/04/11 01:22:59;;;;;;;20.75;9.38;;;11.30;57.30;;;;;;4358406;32;20078;-40
2021/04/11 01:25:31;;;;;;;15.68;8.85;;;11.30;57.20;;;;;;4359509;32;20066;-39
2021/04/11 01:27:57;;;;;;;17.20;9.73;;;11.30;57.20;;;;;;4359033;32;20108;-40
2021/04/11 01:30:32;;;;;;;15.73;8.45;;;11.20;57.10;;;;;;4346046;32;20077;-39
2021/04/11 01:33:00;;;;;;;17.65;12.10;;;11.20;57.10;;;;;;4359788;32;20138;-38
2021/04/11 01:35:27;;;;;;;20.98;10.05;;;11.20;57.10;;;;;;4338997;33;20502;-38
2021/04/11 01:37:55;;;;;;;23.87;14.52;;;11.20;57.10;;;;;;4344585;32;20157;-40
2021/04/11 01:40:31;;;;;;;21.27;11.32;;;11.20;57.30;;;;;;4344624;32;20691;-40
2021/04/11 01:42:57;;;;;;;20.35;8.82;;;11.10;57.40;;;;;;4330923;33;20070;-39
2021/04/11 01:45:24;;;;;;;18.42;8.55;;;11.10;57.50;;;;;;4318813;33;20142;-40
2021/04/11 01:47:50;;;;;;;19.12;10.98;;;11.00;57.50;;;;;;4330859;33;20067;-40
2021/04/11 01:50:17;;;;;;;17.83;8.57;;;11.00;57.50;;;;;;4342933;33;20184;-40
2021/04/11 01:52:43;;;;;;;21.45;8.35;;;11.00;57.50;;;;;;4344306;33;20515;-38
2021/04/11 01:55:10;;;;;;;21.80;10.93;;;11.00;58.20;;;;;;4330436;33;20491;-39
2021/04/11 01:57:37;;;;;;;30.30;12.55;;;11.00;57.50;;;;;;4318387;33;20086;-38
2021/04/11 02:00:24;;;;;;;25.60;13.23;;;11.00;57.40;;;;;;4318240;33;20104;-39
2021/04/11 02:03:01;;;;;;;24.70;10.90;;;11.00;57.30;;;;;;4344362;32;20062;-39
2021/04/11 02:05:27;;;;;;;14.25;7.62;;;10.90;57.30;;;;;;4342390;33;20109;-38
2021/04/11 02:07:56;;;;;;;22.48;9.48;;;10.90;57.50;;;;;;4342426;33;20539;-39
2021/04/11 02:10:31;;;;;;;12.13;6.25;;;10.90;57.50;;;;;;4342715;33;20089;-38
2021/04/11 02:12:57;;;;;;;14.73;7.68;;;10.90;57.50;;;;;;4342449;33;20121;-38
2021/04/11 02:15:29;;;;;;;15.93;8.30;;;10.90;57.60;;;;;;4330446;33;20069;-39
2021/04/11 02:17:57;;;;;;;12.90;4.97;;;10.90;57.60;;;;;;4342869;33;20082;-41
2021/04/11 02:20:25;;;;;;;18.55;8.40;;;11.00;57.60;;;;;;4342717;33;20462;-39
2021/04/11 02:22:53;;;;;;;7.40;4.28;;;11.00;57.50;;;;;;4342860;33;20149;-39
2021/04/11 02:25:21;;;;;;;6.68;2.90;;;11.00;57.40;;;;;;4342301;33;20179;-40
2021/04/11 02:27:48;;;;;;;8.02;4.07;;;11.10;57.50;;;;;;4342513;33;20099;-39
2021/04/11 02:30:20;;;;;;;4.80;2.70;;;11.10;57.40;;;;;;4342405;33;20187;-39
2021/04/11 02:32:46;;;;;;;5.40;2.53;;;11.10;57.30;;;;;;4342294;33;20503;-39
2021/04/11 02:35:17;;;;;;;6.45;2.83;;;11.20;57.20;;;;;;4348911;32;20478;-39
2021/04/11 02:37:46;;;;;;;8.05;3.03;;;11.30;57.10;;;;;;4357294;32;20066;-40
2021/04/11 02:40:23;;;;;;;19.17;7.50;;;11.30;56.80;;;;;;4356319;32;20256;-41
2021/04/11 02:42:50;;;;;;;9.68;4.45;;;11.30;56.80;;;;;;4356781;32;20542;-39
2021/04/11 02:45:23;;;;;;;29.10;16.95;;;11.40;56.70;;;;;;4344534;32;20074;-40
2021/04/11 02:47:52;;;;;;;6.30;1.65;;;11.40;56.60;;;;;;4345289;32;20091;-39
2021/04/11 02:50:19;;;;;;;27.80;13.90;;;11.50;56.50;;;;;;4358503;32;20117;-39
2021/04/11 02:52:55;;;;;;;23.50;12.07;;;11.50;56.30;;;;;;4344572;32;20177;-40
2021/04/11 02:55:22;;;;;;;20.60;10.43;;;11.60;56.40;;;;;;4344735;32;20054;-39
2021/04/11 02:57:48;;;;;;;20.00;7.40;;;11.60;56.20;;;;;;4344350;32;20047;-41
2021/04/11 03:00:18;;;;;;;24.70;12.57;;;11.60;56.10;;;;;;4344619;32;20086;-40
2021/04/11 03:02:45;;;;;;;24.70;14.43;;;11.70;56.10;;;;;;4356636;32;20169;-41
2021/04/11 03:05:13;;;;;;;29.65;13.90;;;11.80;55.90;;;;;;4358242;32;20533;-41
2021/04/11 03:07:58;;;;;;;12.60;6.20;;;11.90;55.90;;;;;;4344509;32;20602;-40
2021/04/11 03:11:06;;;;;;;22.20;10.48;;;12.00;55.70;;;;;;4345303;32;20153;-40
2021/04/11 03:13:33;;;;;;;19.05;10.40;;;12.10;55.50;;;;;;4356722;32;20192;-39
2021/04/11 03:16:00;;;;;;;6.20;4.07;;;12.10;54.90;;;;;;4345161;32;20126;-38
2021/04/11 03:18:26;;;;;;;1.42;1.17;;;12.20;54.90;;;;;;4344962;32;20171;-40
2021/04/11 03:20:53;;;;;;;7.95;4.37;;;12.20;54.60;;;;;;4344688;32;20090;-39
2021/04/11 03:23:20;;;;;;;11.05;5.07;;;12.20;54.50;;;;;;4356598;32;20142;-39
2021/04/11 03:25:46;;;;;;;4.72;2.60;;;12.20;54.30;;;;;;4344300;32;20070;-40
2021/04/11 03:28:38;;;;;;;30.05;11.65;;;12.30;54.30;;;;;;4356680;32;20150;-40
2021/04/11 03:31:29;;;;;;;17.98;8.43;;;12.20;54.20;;;;;;4356615;32;20074;-39
2021/04/11 03:33:59;;;;;;;17.27;9.30;;;12.30;54.00;;;;;;4356248;32;20078;-40
2021/04/11 03:36:26;;;;;;;18.33;8.93;;;12.20;54.00;;;;;;4343304;32;20161;-40
2021/04/11 03:38:52;;;;;;;21.83;9.80;;;12.20;54.00;;;;;;4329761;33;20074;-41
2021/04/11 03:41:19;;;;;;;15.93;8.85;;;12.10;54.00;;;;;;4329733;33;20503;-41
2021/04/11 03:43:56;;;;;;;21.92;11.43;;;12.10;54.10;;;;;;4317289;33;20187;-39
2021/04/11 03:46:29;;;;;;;23.02;10.18;;;12.00;54.30;;;;;;4341566;33;20523;-40
2021/04/11 03:49:30;;;;;;;17.25;9.90;;;11.90;54.30;;;;;;4317457;33;20090;-39
2021/04/11 03:52:00;;;;;;;22.65;11.63;;;11.90;54.60;;;;;;4343723;33;20082;-40
2021/04/11 03:54:30;;;;;;;26.55;14.18;;;11.90;54.70;;;;;;4332459;33;20043;-40
2021/04/11 03:57:12;;;;;;;23.42;12.20;;;11.90;54.70;;;;;;4345925;32;20086;-39
2021/04/11 03:59:53;;;;;;;4.72;2.70;;;11.90;54.80;;;;;;4344561;33;20146;-39
2021/04/11 04:02:21;;;;;;;14.85;6.25;;;11.90;54.90;;;;;;4328055;33;20101;-39
2021/04/11 04:04:47;;;;;;;19.98;9.88;;;12.00;54.90;;;;;;4316225;33;20176;-40
2021/04/11 04:07:20;;;;;;;22.95;11.30;;;12.00;54.70;;;;;;4328615;33;20124;-39
2021/04/11 04:10:00;;;;;;;21.70;9.00;;;12.00;54.60;;;;;;4328826;33;20125;-40
2021/04/11 04:12:39;;;;;;;30.42;15.13;;;12.00;54.70;;;;;;4315976;33;20074;-40
2021/04/11 04:15:43;;;;;;;15.55;7.62;;;12.00;54.40;;;;;;4328398;33;20063;-39
2021/04/11 04:18:40;;;;;;;21.70;10.05;;;12.00;54.60;;;;;;4328150;33;20551;-40
2021/04/11 04:21:50;;;;;;;22.33;9.52;;;12.00;54.70;;;;;;4328244;33;20129;-40
2021/04/11 04:24:42;;;;;;;10.90;4.10;;;12.00;54.70;;;;;;4328288;33;20147;-40
2021/04/11 04:27:33;;;;;;;20.60;11.43;;;12.10;54.80;;;;;;4328250;33;20177;-39
2021/04/11 04:30:12;;;;;;;25.37;10.85;;;12.20;54.50;;;;;;4328353;33;20174;-41
2021/04/11 04:33:04;;;;;;;18.58;9.52;;;12.30;54.30;;;;;;4319766;33;20075;-40
2021/04/11 04:35:58;;;;;;;14.95;8.18;;;12.40;54.20;;;;;;4351465;32;20063;-40
2021/04/11 04:38:54;;;;;;;17.60;8.18;;;12.50;54.20;;;;;;4358854;32;20062;-41
2021/04/11 04:41:45;;;;;;;17.90;9.40;;;12.70;53.90;;;;;;4360198;32;20070;-40
2021/04/11 04:44:39;;;;;;;12.05;6.12;;;12.90;53.60;;;;;;4358585;32;20086;-39
2021/04/11 04:47:07;;;;;;;16.25;6.78;;;13.10;53.10;;;;;;4360125;32;20460;-36
2021/04/11 04:49:43;;;;;;;10.65;4.93;;;13.20;52.40;;;;;;4360868;32;20063;-40
2021/04/11 04:52:19;;;;;;;6.65;3.92;;;13.40;52.20;;;;;;4358353;32;20081;-39
2021/04/11 04:55:01;;;;;;;17.08;7.57;;;13.60;51.80;;;;;;4334701;32;20140;-41
2021/04/11 04:57:52;;;;;;;21.65;8.70;;;13.70;51.30;;;;;;4358186;32;20058;-39
2021/04/11 05:00:31;;;;;;;18.73;8.75;;;13.80;50.90;;;;;;4348561;32;20141;-40
2021/04/11 05:03:01;;;;;;;32.35;8.98;;;13.90;50.30;;;;;;4357895;32;20069;-40
2021/04/11 05:05:28;;;;;;;14.00;7.45;;;14.00;50.30;;;;;;4358758;32;20182;-41
2021/04/11 05:08:04;;;;;;;20.83;9.50;;;14.00;50.20;;;;;;4333948;32;20470;-39
2021/04/11 05:11:10;;;;;;;14.13;6.12;;;14.00;50.10;;;;;;4358439;32;20078;-40
2021/04/11 05:13:47;;;;;;;21.37;8.70;;;14.10;50.00;;;;;;4360282;32;20067;-40
2021/04/11 05:16:25;;;;;;;13.23;7.32;;;14.20;49.80;;;;;;4358007;32;20074;-41
2021/04/11 05:19:02;;;;;;;17.10;6.55;;;14.30;49.60;;;;;;4358773;32;20066;-40
2021/04/11 05:21:33;;;;;;;5.80;4.12;;;14.40;49.50;;;;;;4346196;32;20063;-41
2021/04/11 05:24:16;;;;;;;22.40;7.55;;;14.60;49.30;;;;;;4346358;32;20062;-41
2021/04/11 05:26:50;;;;;;;13.65;5.22;;;14.70;49.10;;;;;;4358659;32;20570;-40
2021/04/11 05:29:55;;;;;;;15.70;6.40;;;14.70;48.90;;;;;;4346151;32;20144;-39
2021/04/11 05:32:23;;;;;;;13.50;6.32;;;14.80;48.50;;;;;;4358492;32;20082;-40
2021/04/11 05:34:50;;;;;;;17.77;7.68;;;14.90;48.10;;;;;;4354686;32;20059;-43
2021/04/11 05:37:46;;;;;;;18.37;6.82;;;14.90;48.00;;;;;;4330945;33;20155;-40
2021/04/11 05:40:27;;;;;;;14.82;6.20;;;15.00;47.90;;;;;;4343453;33;20155;-41
2021/04/11 05:43:09;;;;;;;11.50;5.07;;;15.00;47.90;;;;;;4319907;33;20070;-40
2021/04/11 05:45:42;;;;;;;13.80;6.40;;;15.00;47.90;;;;;;4319577;33;20083;-41
2021/04/11 05:48:24;;;;;;;6.22;3.58;;;15.10;47.60;;;;;;4343579;33;20055;-41
2021/04/11 05:51:10;;;;;;;7.57;5.03;;;15.20;47.50;;;;;;4342924;33;20171;-40
2021/04/11 05:53:44;;;;;;;17.45;8.32;;;15.10;47.30;;;;;;4343356;33;20134;-40
2021/04/11 05:56:29;;;;;;;17.52;7.22;;;15.20;47.30;;;;;;4343217;33;20078;-40
2021/04/11 05:59:02;;;;;;;10.77;4.10;;;15.20;47.30;;;;;;4306842;33;20074;-40
2021/04/11 06:01:39;;;;;;;8.50;3.60;;;15.20;47.30;;;;;;4344543;32;20070;-41
2021/04/11 06:04:17;;;;;;;10.20;4.60;;;15.20;47.40;;;;;;4343216;33;20156;-41
2021/04/11 06:06:48;;;;;;;19.87;5.37;;;15.20;47.30;;;;;;4331357;33;20079;-40
2021/04/11 06:09:26;;;;;;;7.40;3.33;;;15.20;47.30;;;;;;4342792;33;20525;-41
2021/04/11 06:12:06;;;;;;;19.77;8.40;;;15.30;47.40;;;;;;4331549;33;20073;-41
2021/04/11 06:15:06;;;;;;;7.50;3.15;;;15.30;47.40;;;;;;4319575;33;20152;-40
2021/04/11 06:17:32;;;;;;;20.12;8.07;;;15.40;47.20;;;;;;4330525;33;20063;-40
2021/04/11 06:19:58;;;;;;;22.35;11.02;;;15.50;47.20;;;;;;4330655;33;20492;-41
2021/04/11 06:22:40;;;;;;;30.45;10.90;;;15.50;47.10;;;;;;4344408;33;20507;-42
2021/04/11 06:25:47;;;;;;;29.73;8.35;;;15.60;47.40;;;;;;4344506;33;20089;-40
2021/04/11 06:28:38;;;;;;;14.93;5.18;;;15.70;47.20;;;;;;4344373;32;20238;-40
2021/04/11 06:31:13;;;;;;;15.50;4.93;;;15.80;47.10;;;;;;4331428;33;20062;-42
2021/04/11 06:33:43;;;;;;;14.63;6.12;;;16.00;46.60;;;;;;4342728;33;20080;-41
2021/04/11 06:36:15;;;;;;;20.35;7.45;;;16.00;46.20;;;;;;4354188;32;20101;-41
2021/04/11 06:38:56;;;;;;;12.52;4.53;;;16.20;46.20;;;;;;4345889;32;20511;-38
2021/04/11 06:42:04;;;;;;;20.52;6.97;;;16.20;46.00;;;;;;4333513;32;20116;-40
2021/04/11 06:45:19;;;;;;;17.00;7.03;;;16.30;45.90;;;;;;4352291;32;20189;-43
2021/04/11 06:48:13;;;;;;;18.08;6.65;;;16.50;45.60;;;;;;4286063;33;20083;-40
2021/04/11 06:51:33;;;;;;;8.13;4.18;;;16.60;45.50;;;;;;4298365;33;20151;-40
2021/04/11 06:54:27;;;;;;;45.63;15.98;;;16.80;45.20;;;;;;4298288;33;20145;-41
2021/04/11 06:57:14;;;;;;;28.17;7.53;;;16.80;45.10;;;;;;4286086;33;20079;-40
2021/04/11 06:59:59;;;;;;;22.23;8.68;;;16.90;45.20;;;;;;4298321;33;20082;-42
2021/04/11 07:02:56;;;;;;;11.38;6.68;;;17.00;44.80;;;;;;4298526;33;20524;-42
2021/04/11 07:05:46;;;;;;;4.62;3.20;;;17.10;44.90;;;;;;4287945;33;20098;-41
2021/04/11 07:09:11;;;;;;;23.65;10.05;;;17.30;44.50;;;;;;4288824;33;20536;-43
2021/04/11 07:11:52;;;;;;;9.25;5.72;;;17.40;44.40;;;;;;4289604;33;20141;-42
2021/04/11 07:15:18;;;;;;;16.10;8.27;;;17.50;43.80;;;;;;4286979;33;20144;-40
2021/04/11 07:18:20;;;;;;;22.30;7.40;;;17.60;43.80;;;;;;4240518;33;20604;-39
2021/04/11 07:21:29;;;;;;;17.92;8.52;;;17.80;43.10;;;;;;4249737;33;20563;-42
2021/04/11 07:24:20;;;;;;;18.75;11.10;;;17.80;43.00;;;;;;4298013;33;20055;-41
2021/04/11 07:27:08;;;;;;;29.73;14.27;;;17.80;42.90;;;;;;4289007;33;20083;-41
2021/04/11 07:30:01;;;;;;;22.73;11.60;;;17.80;42.90;;;;;;4302949;33;20144;-42
2021/04/11 07:33:01;;;;;;;22.60;8.68;;;17.90;42.60;;;;;;4303097;33;20184;-41
2021/04/11 07:36:13;;;;;;;17.45;9.18;;;17.90;42.60;;;;;;4301759;33;20079;-42
2021/04/11 07:39:09;;;;;;;22.90;9.80;;;18.00;42.30;;;;;;4292027;33;20075;-42
2021/04/11 07:42:06;;;;;;;5.47;2.92;;;18.00;42.10;;;;;;4286637;33;20091;-42
2021/04/11 07:44:57;;;;;;;12.52;6.50;;;18.10;42.10;;;;;;4277156;33;20194;-43
2021/04/11 07:47:50;;;;;;;8.27;3.85;;;18.20;42.00;;;;;;4292918;33;20060;-41
2021/04/11 07:50:57;;;;;;;12.20;5.68;;;18.30;41.60;;;;;;4347921;33;20070;-40
2021/04/11 07:54:29;;;;;;;12.02;3.12;;;18.40;41.50;;;;;;4299197;32;20055;-42
2021/04/11 07:57:36;;;;;;;8.98;5.00;;;18.50;41.50;;;;;;4287257;33;20075;-43
2021/04/11 08:00:26;;;;;;;9.23;4.75;;;18.60;41.60;;;;;;4286463;33;20071;-39
2021/04/11 08:03:16;;;;;;;19.92;7.90;;;18.70;41.40;;;;;;4287387;33;20156;-42
2021/04/11 08:06:13;;;;;;;11.18;5.93;;;18.70;41.40;;;;;;4287371;33;20087;-42
2021/04/11 08:09:02;;;;;;;22.23;12.55;;;18.80;41.40;;;;;;4276394;33;20517;-43
2021/04/11 08:12:12;;;;;;;17.10;4.95;;;18.90;41.10;;;;;;4275286;33;20548;-41
2021/04/11 08:14:52;;;;;;;9.82;5.80;;;18.90;41.30;;;;;;4287008;33;20079;-42
2021/04/11 08:17:38;;;;;;;21.65;10.20;;;19.00;41.20;;;;;;4275193;33;20068;-41
2021/04/11 08:20:39;;;;;;;14.77;8.10;;;19.10;41.50;;;;;;4286695;33;20072;-43
2021/04/11 08:23:35;;;;;;;13.93;5.97;;;19.10;41.00;;;;;;4276686;33;20067;-42
2021/04/11 08:26:13;;;;;;;13.95;8.05;;;19.20;40.70;;;;;;4276543;33;20072;-43
2021/04/11 08:29:24;;;;;;;13.00;5.43;;;19.40;40.70;;;;;;4346359;33;20195;-41
2021/04/11 08:32:12;;;;;;;15.88;5.25;;;19.50;40.80;;;;;;4346549;33;20062;-43
2021/04/11 08:34:55;;;;;;;6.28;2.92;;;19.50;40.40;;;;;;4349736;32;20109;-43
2021/04/11 08:37:51;;;;;;;8.23;3.92;;;19.60;40.40;;;;;;4362187;32;20074;-43
2021/04/11 08:40:44;;;;;;;11.27;4.40;;;19.60;40.40;;;;;;4349158;32;20078;-44
2021/04/11 08:43:53;;;;;;;20.62;8.32;;;19.70;40.30;;;;;;4347338;32;20104;-42
2021/04/11 08:46:29;;;;;;;24.12;9.80;;;19.70;40.30;;;;;;4358966;32;20142;-40
2021/04/11 08:49:22;;;;;;;14.95;4.90;;;19.80;39.90;;;;;;4359377;32;20063;-43
2021/04/11 08:52:32;;;;;;;7.47;4.70;;;19.90;40.00;;;;;;4347031;32;20047;-42
2021/04/11 08:55:04;;;;;;;19.62;7.78;;;20.00;39.80;;;;;;4357182;32;20055;-44
2021/04/11 08:57:46;;;;;;;10.05;5.85;;;20.10;39.80;;;;;;4360589;32;20064;-45
2021/04/11 09:00:30;;;;;;;19.35;8.73;;;20.20;39.70;;;;;;4358849;32;20143;-43
2021/04/11 09:03:31;;;;;;;15.35;7.55;;;20.20;39.60;;;;;;4359356;32;20069;-43
2021/04/11 09:06:13;;;;;;;25.42;5.30;;;20.20;39.60;;;;;;4359128;32;20073;-43
2021/04/11 09:09:07;;;;;;;15.48;5.62;;;20.10;39.90;;;;;;4358983;32;20054;-41
2021/04/11 09:12:05;;;;;;;16.92;8.25;;;20.00;40.00;;;;;;4360030;32;20062;-43
2021/04/11 09:15:04;;;;;;;14.68;5.75;;;20.00;40.40;;;;;;4358688;32;20101;-41
2021/04/11 09:17:59;;;;;;;18.60;6.00;;;19.90;40.70;;;;;;4347412;32;20094;-42
2021/04/11 09:20:48;;;;;;;29.20;12.27;;;19.90;40.70;;;;;;4360269;32;20159;-42
2021/04/11 09:23:33;;;;;;;13.55;7.72;;;19.90;40.80;;;;;;4360472;32;20614;-43
2021/04/11 09:26:39;;;;;;;19.83;7.80;;;20.00;41.00;;;;;;4359884;32;20059;-42
2021/04/11 09:29:23;;;;;;;29.48;15.80;;;19.90;41.30;;;;;;4359967;32;20502;-44
2021/04/11 09:32:33;;;;;;;20.48;10.23;;;19.90;41.40;;;;;;4359674;32;20144;-40
2021/04/11 09:35:21;;;;;;;11.82;5.32;;;19.70;41.80;;;;;;4329301;33;20545;-42
2021/04/11 09:38:29;;;;;;;20.60;9.23;;;19.60;41.80;;;;;;4342471;33;20067;-42
2021/04/11 09:41:09;;;;;;;18.00;8.52;;;19.60;41.90;;;;;;4341831;33;20479;-41
2021/04/11 09:44:07;;;;;;;15.52;9.00;;;19.50;42.10;;;;;;4342055;33;20074;-43
2021/04/11 09:47:07;;;;;;;13.68;6.85;;;19.40;42.20;;;;;;4330207;33;20066;-43
2021/04/11 09:50:09;;;;;;;4.80;2.47;;;19.30;42.40;;;;;;4341953;32;20067;-42
2021/04/11 09:52:50;;;;;;;11.98;5.25;;;19.30;42.50;;;;;;4331472;33;20575;-42
2021/04/11 09:55:30;;;;;;;13.40;6.37;;;19.20;42.30;;;;;;4330575;33;20090;-43
2021/04/11 09:58:34;;;;;;;27.37;15.40;;;19.20;42.50;;;;;;4317749;33;20087;-43
2021/04/11 10:01:47;;;;;;;25.55;12.15;;;19.20;42.60;;;;;;4341699;33;20593;-42
2021/04/11 10:04:36;;;;;;;12.90;5.55;;;19.20;42.80;;;;;;4331231;33;20082;-41
2021/04/11 10:07:22;;;;;;;19.95;7.75;;;19.10;42.70;;;;;;4329413;33;20560;-41
2021/04/11 10:10:35;;;;;;;12.32;5.70;;;19.10;42.80;;;;;;4318623;33;20066;-42
2021/04/11 10:13:27;;;;;;;18.87;6.40;;;19.10;42.90;;;;;;4343567;33;20558;-42
2021/04/11 10:16:28;;;;;;;30.60;15.68;;;19.10;42.80;;;;;;4344045;32;20554;-39
2021/04/11 10:19:29;;;;;;;10.20;4.00;;;19.20;42.80;;;;;;4343029;33;20079;-42
2021/04/11 10:22:30;;;;;;;23.75;7.43;;;19.20;42.60;;;;;;4343331;33;20067;-39
2021/04/11 10:25:27;;;;;;;20.42;8.23;;;19.20;42.60;;;;;;4342909;33;20078;-42
2021/04/11 10:28:21;;;;;;;13.48;6.03;;;19.20;42.30;;;;;;4331572;33;20457;-42
2021/04/11 10:31:16;;;;;;;19.40;10.57;;;19.20;42.20;;;;;;4324567;33;20101;-41
2021/04/11 10:34:07;;;;;;;11.13;5.27;;;19.20;42.30;;;;;;4344107;32;20070;-44
2021/04/11 10:37:27;;;;;;;24.92;9.95;;;19.20;42.30;;;;;;4355728;32;20150;-42
2021/04/11 10:40:00;;;;;;;12.25;5.37;;;19.10;42.30;;;;;;4347434;32;20067;-42
2021/04/11 10:42:59;;;;;;;33.88;15.32;;;19.10;42.40;;;;;;4358778;32;20482;-42
2021/04/11 10:45:41;;;;;;;20.12;5.45;;;19.10;42.80;;;;;;4357317;32;20165;-42
2021/04/11 10:48:40;;;;;;;21.23;10.27;;;19.10;42.70;;;;;;4345148;32;20062;-42
2021/04/11 10:51:45;;;;;;;21.83;9.35;;;19.20;42.50;;;;;;4345636;32;20086;-41
2021/04/11 10:54:34;;;;;;;32.45;10.30;;;19.10;42.40;;;;;;4329849;32;20466;-43
2021/04/11 10:57:47;;;;;;;24.23;8.55;;;19.10;42.60;;;;;;4357313;32;20636;-41
2021/04/11 11:00:41;;;;;;;20.58;10.85;;;19.00;42.70;;;;;;4358524;32;20058;-42
2021/04/11 11:03:36;;;;;;;23.15;10.75;;;19.00;42.80;;;;;;4335757;32;20058;-42
2021/04/11 11:06:39;;;;;;;15.93;8.57;;;18.90;42.80;;;;;;4358502;32;20065;-43
2021/04/11 11:09:22;;;;;;;13.15;6.70;;;18.80;43.20;;;;;;4356974;32;20180;-42
2021/04/11 11:12:13;;;;;;;27.27;11.57;;;18.80;43.30;;;;;;4356994;32;20449;-43
2021/04/11 11:15:09;;;;;;;20.08;5.60;;;18.60;43.40;;;;;;4358560;32;20525;-42
2021/04/11 11:18:22;;;;;;;8.85;4.87;;;18.60;43.60;;;;;;4356549;32;20066;-42
2021/04/11 11:21:31;;;;;;;15.68;8.05;;;18.50;43.70;;;;;;4333954;32;20149;-42
2021/04/11 11:24:08;;;;;;;27.25;12.57;;;18.40;44.10;;;;;;4342952;32;20066;-39
2021/04/11 11:27:17;;;;;;;10.95;6.07;;;18.30;44.40;;;;;;4343835;32;20054;-42
2021/04/11 11:30:21;;;;;;;12.37;6.72;;;18.30;44.60;;;;;;4355403;32;20061;-41
2021/04/11 11:33:32;;;;;;;25.40;14.25;;;18.20;44.70;;;;;;4345879;32;20097;-42
2021/04/11 11:36:32;;;;;;;11.27;5.15;;;18.00;45.30;;;;;;4337237;32;20464;-39
2021/04/11 11:39:24;;;;;;;20.17;11.18;;;18.00;45.40;;;;;;4311001;33;20137;-40
2021/04/11 11:42:29;;;;;;;17.90;9.05;;;17.90;45.70;;;;;;4330608;33;20673;-43
2021/04/11 11:45:23;;;;;;;36.92;17.12;;;17.90;45.90;;;;;;4331355;33;20110;-44
2021/04/11 11:48:11;;;;;;;40.10;16.00;;;18.00;46.00;;;;;;4329390;33;20090;-43
2021/04/11 11:50:54;;;;;;;33.80;16.73;;;17.90;45.80;;;;;;4340401;33;20059;-43
2021/04/11 11:53:34;;;;;;;51.90;20.77;;;17.80;46.00;;;;;;4328772;33;20056;-43
2021/04/11 11:56:17;;;;;;;48.13;19.83;;;17.80;45.60;;;;;;4342931;33;20063;-41
2021/04/11 11:59:18;;;;;;;47.08;19.05;;;17.80;45.10;;;;;;4341598;33;20067;-43
2021/04/11 12:02:19;;;;;;;53.92;20.85;;;17.70;45.10;;;;;;4326649;33;20171;-43
2021/04/11 12:05:30;;;;;;;44.50;17.52;;;17.60;45.40;;;;;;4342738;32;20153;-40
2021/04/11 12:08:16;;;;;;;16.52;7.90;;;17.50;46.20;;;;;;4319686;32;20474;-44
2021/04/11 12:11:15;;;;;;;41.53;14.63;;;17.40;46.90;;;;;;4342027;33;20090;-43
2021/04/11 12:13:59;;;;;;;32.88;13.10;;;17.50;46.70;;;;;;4331879;33;20087;-42
2021/04/11 12:17:01;;;;;;;28.15;15.48;;;17.40;46.60;;;;;;4332016;33;20075;-43
2021/04/11 12:19:54;;;;;;;28.05;15.85;;;17.50;46.60;;;;;;4345917;32;20149;-45
2021/04/11 12:22:52;;;;;;;18.45;7.75;;;17.60;46.60;;;;;;4332589;33;20508;-45
2021/04/11 12:25:33;;;;;;;24.15;13.32;;;17.60;46.20;;;;;;4342297;33;20089;-42
2021/04/11 12:28:18;;;;;;;22.50;11.55;;;17.30;45.90;;;;;;4344274;33;20094;-41
2021/04/11 12:30:45;;;;;;;32.30;18.30;;;17.00;45.70;;;;;;4345738;32;20105;-41
2021/04/11 12:33:47;;;;;;;31.58;17.98;;;16.80;46.00;;;;;;4343741;33;20086;-43
2021/04/11 12:36:28;;;;;;;24.15;12.25;;;16.50;46.70;;;;;;4356339;32;20074;-44
2021/04/11 12:39:02;;;;;;;27.58;15.88;;;16.20;47.30;;;;;;4360643;32;20070;-42
2021/04/11 12:42:05;;;;;;;25.37;13.98;;;16.10;47.70;;;;;;4360201;32;20105;-41
2021/04/11 12:44:33;;;;;;;29.95;15.77;;;15.90;48.10;;;;;;4330343;32;20086;-43
2021/04/11 12:47:19;;;;;;;34.53;19.37;;;15.90;48.60;;;;;;4360602;32;20063;-41
2021/04/11 12:50:27;;;;;;;21.60;11.63;;;15.80;48.70;;;;;;4358782;32;20106;-41
2021/04/11 12:53:22;;;;;;;22.92;12.73;;;15.70;48.90;;;;;;4331492;32;20089;-41
2021/04/11 12:56:06;;;;;;;18.25;7.80;;;15.70;49.00;;;;;;4358589;32;20078;-43
2021/04/11 12:58:58;;;;;;;19.20;9.50;;;15.60;49.10;;;;;;4346267;32;20069;-42
2021/04/11 13:01:52;;;;;;;28.92;10.77;;;15.60;49.10;;;;;;4359681;32;20144;-43
2021/04/11 13:04:41;;;;;;;18.17;5.30;;;15.70;49.30;;;;;;4346986;32;20092;-41
2021/04/11 13:07:30;;;;;;;9.68;3.75;;;15.80;49.00;;;;;;4359848;32;20145;-41
2021/04/11 13:10:24;;;;;;;17.73;7.62;;;15.80;49.00;;;;;;4358583;32;20153;-42
2021/04/11 13:13:16;;;;;;;25.92;9.52;;;15.80;49.10;;;;;;4358239;32;20150;-40
2021/04/11 13:16:24;;;;;;;21.50;9.45;;;15.80;49.00;;;;;;4347591;32;20067;-41
2021/04/11 13:19:28;;;;;;;16.48;7.47;;;15.80;49.00;;;;;;4358713;32;20146;-42
2021/04/11 13:22:31;;;;;;;6.85;3.80;;;15.90;49.00;;;;;;4348064;32;20078;-41
2021/04/11 13:25:33;;;;;;;9.05;4.47;;;15.80;48.90;;;;;;4357950;32;20066;-43
2021/04/11 13:28:31;;;;;;;22.87;12.82;;;15.80;49.10;;;;;;4348791;32;20531;-41
2021/04/11 13:31:35;;;;;;;19.92;8.27;;;15.80;49.10;;;;;;4359685;32;20077;-41
2021/04/11 13:34:18;;;;;;;23.42;9.77;;;15.90;49.20;;;;;;4298301;33;20075;-42
2021/04/11 13:36:47;;;;;;;18.05;9.13;;;15.90;49.10;;;;;;4287988;33;20523;-39
2021/04/11 13:39:23;;;;;;;27.40;9.05;;;15.90;49.10;;;;;;4274553;33;20079;-41
2021/04/11 13:42:24;;;;;;;15.52;6.10;;;15.90;49.30;;;;;;4274732;33;20067;-40
2021/04/11 13:45:25;;;;;;;20.42;9.60;;;15.90;49.10;;;;;;4286849;33;20059;-41
2021/04/11 13:48:16;;;;;;;15.82;8.45;;;16.00;49.20;;;;;;4291808;33;20078;-40
2021/04/11 13:51:11;;;;;;;13.15;7.22;;;15.90;49.20;;;;;;4297867;33;20460;-41
2021/04/11 13:53:49;;;;;;;12.75;5.12;;;16.00;49.20;;;;;;4286154;33;20513;-40
2021/04/11 13:56:25;;;;;;;20.98;11.00;;;16.00;49.10;;;;;;4286052;33;20492;-41
2021/04/11 13:58:58;;;;;;;13.25;5.07;;;16.10;49.10;;;;;;4298196;33;20199;-42
2021/04/11 14:01:57;;;;;;;10.45;5.90;;;16.10;49.10;;;;;;4298469;33;20064;-42
2021/04/11 14:04:52;;;;;;;17.05;6.47;;;16.10;49.10;;;;;;4265969;33;20537;-41
2021/04/11 14:07:39;;;;;;;13.07;5.95;;;16.10;49.00;;;;;;4286192;33;20255;-41